createdAt,value
2023-09-28T00:01:48.557Z,8.70
2023-09-28T00:04:15.060Z,6.47
2023-09-28T00:06:41.538Z,9.98
2023-09-28T00:09:08.035Z,5.45
2023-09-28T00:11:34.562Z,6.50
2023-09-28T00:14:01.085Z,6.60
2023-09-28T00:16:29.163Z,6.30
2023-09-28T00:18:55.781Z,5.22
2023-09-28T00:21:22.229Z,5.05
2023-09-28T00:23:48.764Z,4.95
2023-09-28T00:26:15.221Z,6.15
2023-09-28T00:28:41.769Z,6.22
2023-09-28T00:31:08.290Z,6.50
2023-09-28T00:33:36.174Z,8.82
2023-09-28T00:36:02.906Z,8.63
2023-09-28T00:38:29.396Z,7.30
2023-09-28T00:40:55.936Z,6.35
2023-09-28T00:43:26.248Z,7.90
2023-09-28T00:45:52.802Z,5.70
2023-09-28T00:48:19.621Z,10.20
2023-09-28T00:50:49.695Z,8.00
2023-09-28T00:53:17.929Z,7.57
2023-09-28T00:55:44.851Z,8.27
2023-09-28T00:58:11.358Z,7.35
2023-09-28T01:00:38.492Z,6.63
2023-09-28T01:03:05.888Z,10.18
2023-09-28T01:08:06.112Z,8.43
2023-09-28T01:10:32.735Z,7.88
2023-09-28T01:12:59.240Z,7.80
2023-09-28T01:15:25.994Z,7.10
2023-09-28T01:17:52.504Z,6.32
2023-09-28T01:20:18.955Z,9.43
2023-09-28T01:22:47.279Z,7.78
2023-09-28T01:25:13.872Z,6.35
2023-09-28T01:27:44.409Z,7.63
2023-09-28T01:30:11.449Z,11.52
2023-09-28T01:32:37.917Z,7.47
2023-09-28T01:35:05.220Z,6.30
2023-09-28T01:37:40.404Z,8.25
2023-09-28T01:40:09.406Z,7.28
2023-09-28T01:42:35.920Z,8.95
2023-09-28T01:45:02.669Z,6.13
2023-09-28T01:47:29.195Z,7.47
2023-09-28T01:49:55.697Z,6.70
2023-09-28T01:52:22.300Z,7.55
2023-09-28T01:54:48.784Z,8.15
2023-09-28T01:57:16.717Z,7.73
2023-09-28T01:59:43.425Z,8.73
2023-09-28T02:02:10.144Z,12.30
2023-09-28T02:04:37.629Z,10.50
2023-09-28T02:09:30.414Z,7.30
2023-09-28T02:11:56.937Z,6.88
2023-09-28T02:14:24.872Z,8.38
2023-09-28T02:16:51.426Z,6.68
2023-09-28T02:19:17.953Z,9.03
2023-09-28T02:21:44.515Z,11.00
2023-09-28T02:24:11.045Z,10.97
2023-09-28T02:26:37.533Z,8.68
2023-09-28T02:29:04.100Z,7.78
2023-09-28T02:31:32.006Z,9.13
2023-09-28T02:33:58.643Z,8.98
2023-09-28T02:36:25.113Z,7.17
2023-09-28T02:38:51.760Z,13.13
2023-09-28T02:41:18.482Z,7.07
2023-09-28T02:43:45.065Z,9.50
2023-09-28T02:46:11.754Z,7.53
2023-09-28T02:48:39.786Z,6.83
2023-09-28T02:51:06.770Z,9.88
2023-09-28T02:53:33.260Z,9.88
2023-09-28T02:55:59.801Z,9.25
2023-09-28T02:58:26.373Z,6.27
2023-09-28T03:00:53.903Z,7.53
2023-09-28T03:05:48.044Z,5.53
2023-09-28T03:08:14.797Z,10.05
2023-09-28T03:10:43.102Z,7.00
2023-09-28T03:13:10.029Z,4.70
2023-09-28T03:15:36.512Z,8.57
2023-09-28T03:18:03.913Z,8.43
2023-09-28T03:22:58.296Z,9.13
2023-09-28T03:25:24.932Z,8.80
2023-09-28T03:27:52.796Z,6.93
2023-09-28T03:30:20.706Z,6.97
2023-09-28T03:32:47.838Z,7.53
2023-09-28T03:35:15.152Z,7.45
2023-09-28T03:37:42.148Z,7.72
2023-09-28T03:40:12.263Z,10.18
2023-09-28T03:42:39.682Z,12.18
2023-09-28T03:45:07.366Z,7.05
2023-09-28T03:47:33.858Z,6.80
2023-09-28T03:50:00.478Z,5.20
2023-09-28T03:52:26.995Z,7.77
2023-09-28T03:54:53.485Z,7.03
2023-09-28T03:57:21.308Z,10.70
2023-09-28T03:59:47.776Z,11.20
2023-09-28T04:02:14.313Z,9.18
2023-09-28T04:04:40.897Z,6.15
2023-09-28T04:07:07.451Z,6.72
2023-09-28T04:09:34.003Z,10.88
2023-09-28T04:12:00.981Z,10.63
2023-09-28T04:14:28.823Z,6.72
2023-09-28T04:16:55.459Z,8.85
2023-09-28T04:19:21.937Z,7.27
2023-09-28T04:21:48.449Z,7.88
2023-09-28T04:24:14.967Z,10.25
2023-09-28T04:26:41.481Z,7.13
2023-09-28T04:29:08.031Z,13.33
2023-09-28T04:31:36.140Z,7.27
2023-09-28T04:34:02.879Z,6.07
2023-09-28T04:36:29.373Z,9.52
2023-09-28T04:38:55.833Z,10.02
2023-09-28T04:41:22.343Z,7.88
2023-09-28T04:43:48.901Z,7.00
2023-09-28T04:46:15.492Z,6.63
2023-09-28T04:48:43.292Z,7.15
2023-09-28T04:51:09.793Z,10.23
2023-09-28T04:53:36.312Z,12.38
2023-09-28T04:56:09.380Z,10.25
2023-09-28T04:58:36.091Z,8.93
2023-09-28T05:01:02.722Z,6.70
2023-09-28T05:03:29.251Z,7.60
2023-09-28T05:05:57.173Z,7.68
2023-09-28T05:08:23.755Z,12.20
2023-09-28T05:10:50.336Z,7.27
2023-09-28T05:13:17.038Z,9.30
2023-09-28T05:15:43.887Z,10.00
2023-09-28T05:18:10.468Z,8.90
2023-09-28T05:20:36.984Z,7.93
2023-09-28T05:23:04.965Z,7.43
2023-09-28T05:25:33.341Z,9.80
2023-09-28T05:27:59.906Z,8.20
2023-09-28T05:30:26.366Z,7.57
2023-09-28T05:32:52.900Z,9.35
2023-09-28T05:35:19.768Z,6.87
2023-09-28T05:37:46.357Z,9.27
2023-09-28T05:40:14.237Z,6.75
2023-09-28T05:42:41.088Z,8.38
2023-09-28T05:45:08.950Z,9.07
2023-09-28T05:47:35.580Z,7.88
2023-09-28T05:50:03.009Z,9.25
2023-09-28T05:52:29.508Z,9.57
2023-09-28T05:54:55.995Z,8.30
2023-09-28T05:57:23.920Z,8.07
2023-09-28T05:59:50.562Z,6.32
2023-09-28T06:02:17.352Z,8.33
2023-09-28T06:04:43.947Z,9.13
2023-09-28T06:07:10.449Z,8.47
2023-09-28T06:09:39.669Z,11.75
2023-09-28T06:12:06.511Z,8.02
2023-09-28T06:14:35.024Z,11.85
2023-09-28T06:17:01.802Z,8.38
2023-09-28T06:19:28.531Z,7.38
2023-09-28T06:21:55.571Z,6.53
2023-09-28T06:24:22.168Z,8.52
2023-09-28T06:26:48.732Z,6.30
2023-09-28T06:29:15.285Z,12.30
2023-09-28T06:31:43.201Z,9.73
2023-09-28T06:34:09.695Z,8.90
2023-09-28T06:39:05.850Z,9.90
2023-09-28T06:41:32.320Z,6.43
2023-09-28T06:43:58.843Z,6.40
2023-09-28T06:46:25.336Z,6.38
2023-09-28T06:48:53.425Z,7.45
2023-09-28T06:51:20.221Z,7.60
2023-09-28T06:53:46.906Z,5.75
2023-09-28T06:56:15.073Z,7.50
2023-09-28T06:58:41.837Z,8.10
2023-09-28T07:01:08.347Z,6.70
2023-09-28T07:03:34.863Z,7.53
2023-09-28T07:06:02.784Z,5.28
2023-09-28T07:08:29.281Z,9.65
2023-09-28T07:10:55.837Z,6.63
2023-09-28T07:13:22.314Z,12.85
2023-09-28T07:15:48.875Z,8.32
2023-09-28T07:18:15.414Z,9.20
2023-09-28T07:20:41.899Z,10.63
2023-09-28T07:23:09.745Z,9.23
2023-09-28T07:25:36.304Z,7.80
2023-09-28T07:28:03.080Z,7.05
2023-09-28T07:30:29.786Z,7.22
2023-09-28T07:32:56.468Z,10.47
2023-09-28T07:35:23.375Z,5.57
2023-09-28T07:37:50.446Z,6.88
2023-09-28T07:40:25.770Z,5.30
2023-09-28T07:42:55.429Z,8.00
2023-09-28T07:45:21.894Z,11.18
2023-09-28T07:47:48.382Z,5.25
2023-09-28T07:50:15.291Z,7.97
2023-09-28T07:52:42.107Z,10.30
2023-09-28T07:55:09.762Z,8.47
2023-09-28T07:57:54.526Z,6.55
2023-09-28T08:00:24.162Z,6.47
2023-09-28T08:02:50.680Z,8.30
2023-09-28T08:05:17.312Z,6.93
2023-09-28T08:07:47.610Z,6.97
2023-09-28T08:10:22.064Z,5.88
2023-09-28T08:12:49.950Z,5.75
2023-09-28T08:15:27.295Z,9.32
2023-09-28T08:18:02.362Z,8.50
2023-09-28T08:20:31.775Z,5.50
2023-09-28T08:22:59.427Z,7.95
2023-09-28T08:25:26.238Z,6.75
2023-09-28T08:27:54.127Z,5.10
2023-09-28T08:30:20.674Z,7.53
2023-09-28T08:32:47.261Z,8.97
2023-09-28T08:35:14.010Z,6.03
2023-09-28T08:37:40.497Z,11.17
2023-09-28T08:40:08.627Z,7.93
2023-09-28T08:42:38.686Z,5.32
2023-09-28T08:45:08.155Z,8.40
2023-09-28T08:47:42.047Z,5.13
2023-09-28T08:50:11.150Z,5.40
2023-09-28T08:52:37.822Z,8.93
2023-09-28T08:55:06.036Z,8.33
2023-09-28T08:57:32.959Z,9.80
2023-09-28T09:00:00.332Z,7.57
2023-09-28T09:02:29.450Z,5.80
2023-09-28T09:04:56.069Z,5.75
2023-09-28T09:07:23.441Z,5.00
2023-09-28T09:09:51.617Z,7.50
2023-09-28T09:12:19.128Z,5.97
2023-09-28T09:14:45.615Z,10.52
2023-09-28T09:17:13.358Z,10.00
2023-09-28T09:19:42.740Z,4.85
2023-09-28T09:22:24.098Z,4.75
2023-09-28T09:24:54.318Z,6.20
2023-09-28T09:27:26.212Z,5.57
2023-09-28T09:29:52.709Z,4.32
2023-09-28T09:32:22.098Z,7.70
2023-09-28T09:34:51.959Z,5.30
2023-09-28T09:37:18.462Z,5.43
2023-09-28T09:39:44.921Z,6.03
2023-09-28T09:42:11.395Z,6.32
2023-09-28T09:44:37.911Z,7.28
2023-09-28T09:47:04.772Z,8.70
2023-09-28T09:49:32.605Z,5.72
2023-09-28T09:52:01.270Z,7.07
2023-09-28T09:54:27.754Z,5.03
2023-09-28T09:56:54.205Z,9.23
2023-09-28T09:59:22.702Z,4.33
2023-09-28T10:01:50.984Z,6.88
2023-09-28T10:04:18.862Z,3.88
2023-09-28T10:06:46.248Z,4.60
2023-09-28T10:11:40.759Z,4.18
2023-09-28T10:14:07.602Z,5.30
2023-09-28T10:16:36.330Z,3.03
2023-09-28T10:19:05.526Z,5.63
2023-09-28T10:21:35.668Z,3.95
2023-09-28T10:24:08.727Z,4.63
2023-09-28T10:26:36.750Z,6.22
2023-09-28T10:29:04.965Z,5.22
2023-09-28T10:31:41.917Z,3.50
2023-09-28T10:34:18.843Z,4.30
2023-09-28T10:36:45.403Z,3.50
2023-09-28T10:39:13.049Z,3.33
2023-09-28T10:41:43.878Z,5.35
2023-09-28T10:44:14.578Z,5.03
2023-09-28T10:46:41.593Z,2.95
2023-09-28T10:49:08.178Z,2.33
2023-09-28T10:51:34.885Z,3.20
2023-09-28T10:54:04.640Z,3.10
2023-09-28T10:56:35.381Z,3.42
2023-09-28T10:59:03.677Z,3.03
2023-09-28T11:01:30.223Z,2.80
2023-09-28T11:03:57.010Z,3.40
2023-09-28T11:06:24.339Z,4.65
2023-09-28T11:08:50.954Z,5.70
2023-09-28T11:11:17.690Z,3.78
2023-09-28T11:13:44.647Z,4.45
2023-09-28T11:16:12.740Z,4.82
2023-09-28T11:18:39.318Z,3.50
2023-09-28T11:21:06.025Z,3.43
2023-09-28T11:23:32.588Z,3.78
2023-09-28T11:25:59.449Z,3.88
2023-09-28T11:28:27.528Z,3.40
2023-09-28T11:31:07.362Z,3.88
2023-09-28T11:33:35.370Z,8.85
2023-09-28T11:36:02.480Z,3.58
2023-09-28T11:38:29.277Z,2.72
2023-09-28T11:40:56.112Z,3.20
2023-09-28T11:43:22.636Z,3.97
2023-09-28T11:45:49.760Z,2.47
2023-09-28T11:48:18.271Z,3.67
2023-09-28T11:50:47.072Z,2.22
2023-09-28T11:53:13.625Z,2.88
2023-09-28T11:55:40.556Z,3.30
2023-09-28T11:58:07.439Z,2.38
2023-09-28T12:00:33.927Z,2.80
2023-09-28T12:03:00.890Z,4.40
2023-09-28T12:05:27.997Z,5.05
2023-09-28T12:07:56.608Z,3.40
2023-09-28T12:10:23.292Z,2.03
2023-09-28T12:12:50.167Z,6.72
2023-09-28T12:15:16.687Z,3.35
2023-09-28T12:17:43.806Z,4.10
2023-09-28T12:20:11.892Z,2.42
2023-09-28T12:22:38.399Z,4.00
2023-09-28T12:25:07.773Z,2.43
2023-09-28T12:27:34.237Z,3.40
2023-09-28T12:30:00.799Z,2.25
2023-09-28T12:32:27.568Z,4.93
2023-09-28T12:34:54.070Z,4.95
2023-09-28T12:37:21.268Z,3.67
2023-09-28T12:39:47.748Z,2.50
2023-09-28T12:42:15.663Z,2.83
2023-09-28T12:44:42.170Z,3.85
2023-09-28T12:47:08.884Z,2.00
2023-09-28T12:52:01.727Z,1.63
2023-09-28T12:54:29.928Z,2.42
2023-09-28T12:56:56.487Z,5.13
2023-09-28T12:59:24.367Z,2.47
2023-09-28T13:01:50.970Z,4.30
2023-09-28T13:04:17.557Z,4.50
2023-09-28T13:09:10.634Z,1.45
2023-09-28T13:11:37.156Z,2.80
2023-09-28T13:14:04.287Z,2.63
2023-09-28T13:16:32.160Z,2.97
2023-09-28T13:18:58.752Z,2.63
2023-09-28T13:21:25.247Z,2.17
2023-09-28T13:23:58.658Z,2.92
2023-09-28T13:26:32.148Z,1.88
2023-09-28T13:29:02.817Z,2.13
2023-09-28T13:31:29.692Z,2.10
2023-09-28T13:33:57.522Z,2.90
2023-09-28T13:36:25.368Z,3.63
2023-09-28T13:38:51.818Z,4.82
2023-09-28T13:41:25.430Z,3.00
2023-09-28T13:43:51.920Z,1.90
2023-09-28T13:46:18.494Z,1.85
2023-09-28T13:48:45.043Z,6.97
2023-09-28T13:51:12.827Z,5.40
2023-09-28T13:53:39.378Z,2.65
2023-09-28T13:56:05.983Z,2.70
2023-09-28T13:58:32.561Z,1.60
2023-09-28T14:00:59.438Z,2.42
2023-09-28T14:03:26.014Z,3.58
2023-09-28T14:05:52.594Z,1.80
2023-09-28T14:08:20.404Z,2.37
2023-09-28T14:10:46.935Z,4.38
2023-09-28T14:13:13.429Z,1.85
2023-09-28T14:15:39.932Z,1.77
2023-09-28T14:18:07.311Z,3.42
2023-09-28T14:20:33.917Z,1.92
2023-09-28T14:23:00.469Z,2.13
2023-09-28T14:25:28.319Z,4.35
2023-09-28T14:27:54.795Z,3.50
2023-09-28T14:30:21.264Z,1.53
2023-09-28T14:32:48.057Z,1.60
2023-09-28T14:35:15.128Z,1.92
2023-09-28T14:37:41.706Z,2.08
2023-09-28T14:40:09.018Z,1.48
2023-09-28T14:45:03.272Z,1.10
2023-09-28T14:47:29.828Z,3.93
2023-09-28T14:49:56.367Z,1.77
2023-09-28T14:52:22.839Z,5.50
2023-09-28T14:54:49.293Z,3.30
2023-09-28T14:57:15.769Z,2.67
2023-09-28T14:59:43.693Z,1.93
2023-09-28T15:02:10.285Z,3.80
2023-09-28T15:04:36.789Z,2.30
2023-09-28T15:07:03.312Z,3.63
2023-09-28T15:09:29.800Z,3.10
2023-09-28T15:11:56.283Z,2.67
2023-09-28T15:14:23.361Z,2.90
2023-09-28T15:16:51.386Z,2.17
2023-09-28T15:19:17.851Z,3.28
2023-09-28T15:21:44.369Z,5.93
2023-09-28T15:24:10.929Z,1.53
2023-09-28T15:26:37.666Z,3.90
2023-09-28T15:29:07.086Z,3.75
2023-09-28T15:31:33.588Z,1.55
2023-09-28T15:34:01.439Z,2.00
2023-09-28T15:36:27.890Z,2.03
2023-09-28T15:38:54.768Z,3.10
2023-09-28T15:41:34.971Z,1.63
2023-09-28T15:44:01.867Z,2.58
2023-09-28T15:46:28.523Z,4.68
2023-09-28T15:48:55.235Z,6.05
2023-09-28T15:51:23.055Z,3.33
2023-09-28T15:53:49.586Z,2.53
2023-09-28T15:56:16.128Z,5.17
2023-09-28T15:58:42.758Z,2.97
2023-09-28T16:01:11.741Z,4.50
2023-09-28T16:03:38.386Z,5.70
2023-09-28T16:06:05.565Z,7.68
2023-09-28T16:08:33.418Z,1.60
2023-09-28T16:10:59.934Z,2.97
2023-09-28T16:13:26.437Z,3.53
2023-09-28T16:15:53.139Z,3.20
2023-09-28T16:18:19.730Z,2.03
2023-09-28T16:20:46.792Z,2.10
2023-09-28T16:23:13.353Z,28.13
2023-09-28T16:25:41.230Z,8.70
2023-09-28T16:28:07.717Z,5.93
2023-09-28T16:30:34.427Z,4.63
2023-09-28T16:33:01.017Z,2.93
2023-09-28T16:35:27.552Z,3.23
2023-09-28T16:37:54.095Z,3.38
2023-09-28T16:40:20.626Z,2.20
2023-09-28T16:42:48.481Z,1.73
2023-09-28T16:45:15.002Z,4.55
2023-09-28T16:47:41.497Z,3.45
2023-09-28T16:50:08.645Z,3.77
2023-09-28T16:52:35.174Z,5.13
2023-09-28T16:55:01.655Z,3.33
2023-09-28T16:57:28.188Z,2.28
2023-09-28T16:59:56.209Z,4.13
2023-09-28T17:02:22.701Z,3.13
2023-09-28T17:04:49.225Z,2.53
2023-09-28T17:07:15.910Z,5.93
2023-09-28T17:09:42.491Z,2.77
2023-09-28T17:12:08.929Z,2.33
2023-09-28T17:14:35.570Z,2.88
2023-09-28T17:17:03.405Z,3.07
2023-09-28T17:19:29.869Z,4.80
2023-09-28T17:21:56.345Z,3.85
2023-09-28T17:24:22.868Z,5.63
2023-09-28T17:26:49.402Z,4.93
2023-09-28T17:29:15.966Z,3.10
2023-09-28T17:31:42.459Z,6.60
2023-09-28T17:34:10.282Z,6.05
2023-09-28T17:36:36.870Z,7.88
2023-09-28T17:39:04.089Z,5.13
2023-09-28T17:41:30.614Z,3.80
2023-09-28T17:43:57.125Z,6.70
2023-09-28T17:46:23.611Z,4.78
2023-09-28T17:48:50.132Z,4.20
2023-09-28T17:51:17.953Z,3.00
2023-09-28T17:53:44.632Z,7.32
2023-09-28T17:56:11.501Z,3.30
2023-09-28T17:58:38.204Z,5.20
2023-09-28T18:01:04.689Z,4.00
2023-09-28T18:03:31.349Z,11.43
2023-09-28T18:05:57.808Z,7.03
2023-09-28T18:08:25.634Z,6.18
2023-09-28T18:10:52.239Z,5.30
2023-09-28T18:13:18.704Z,4.67
2023-09-28T18:15:45.162Z,8.43
2023-09-28T18:18:11.733Z,8.30
2023-09-28T18:20:38.306Z,13.53
2023-09-28T18:23:04.811Z,9.63
2023-09-28T18:25:32.640Z,12.02
2023-09-28T18:27:59.122Z,7.28
2023-09-28T18:30:25.639Z,10.73
2023-09-28T18:32:52.233Z,4.85
2023-09-28T18:35:18.817Z,8.83
2023-09-28T18:37:45.322Z,7.50
2023-09-28T18:40:12.488Z,7.78
2023-09-28T18:42:40.346Z,11.07
2023-09-28T18:45:07.891Z,7.20
2023-09-28T18:47:34.532Z,6.65
2023-09-28T18:50:01.503Z,8.50
2023-09-28T18:52:28.092Z,7.30
2023-09-28T18:54:54.668Z,11.47
2023-09-28T18:57:21.249Z,8.63
2023-09-28T18:59:49.298Z,11.80
2023-09-28T19:02:15.836Z,11.10
2023-09-28T19:04:42.321Z,11.95
2023-09-28T19:07:08.756Z,7.15
2023-09-28T19:09:35.241Z,10.68
2023-09-28T19:12:02.460Z,7.63
2023-09-28T19:16:56.899Z,8.48
2023-09-28T19:19:23.406Z,9.00
2023-09-28T19:21:49.913Z,8.35
2023-09-28T19:24:16.393Z,6.80
2023-09-28T19:26:42.977Z,6.15
2023-09-28T19:29:10.734Z,9.93
2023-09-28T19:31:37.370Z,10.15
2023-09-28T19:34:05.314Z,14.20
2023-09-28T19:36:31.789Z,9.52
2023-09-28T19:38:58.325Z,6.07
2023-09-28T19:41:26.239Z,14.00
2023-09-28T19:43:52.931Z,28.52
2023-09-28T19:46:19.714Z,27.15
2023-09-28T19:48:46.490Z,19.10
2023-09-28T19:51:16.961Z,15.70
2023-09-28T19:53:43.661Z,10.13
2023-09-28T19:56:10.465Z,9.70
2023-09-28T19:58:36.991Z,12.65
2023-09-28T20:01:03.609Z,9.27
2023-09-28T20:03:30.179Z,9.50
2023-09-28T20:05:56.773Z,6.13
2023-09-28T20:08:24.708Z,10.43
2023-09-28T20:10:51.288Z,13.27
2023-09-28T20:13:17.784Z,6.90
2023-09-28T20:15:44.289Z,13.60
2023-09-28T20:18:10.856Z,9.30
2023-09-28T20:20:37.473Z,7.27
2023-09-28T20:23:04.457Z,6.97
2023-09-28T20:25:33.881Z,9.23
2023-09-28T20:28:00.398Z,8.18
2023-09-28T20:30:26.927Z,9.82
2023-09-28T20:32:53.713Z,9.55
2023-09-28T20:35:20.258Z,10.65
2023-09-28T20:37:46.763Z,14.63
2023-09-28T20:40:13.541Z,8.38
2023-09-28T20:42:41.418Z,14.88
2023-09-28T20:45:08.474Z,9.93
2023-09-28T20:47:36.952Z,6.85
2023-09-28T20:50:04.375Z,14.55
2023-09-28T20:52:30.867Z,9.27
2023-09-28T20:54:57.346Z,7.63
2023-09-28T20:57:23.965Z,8.52
2023-09-28T20:59:51.852Z,9.77
2023-09-28T21:02:18.432Z,9.57
2023-09-28T21:04:44.954Z,8.57
2023-09-28T21:07:11.460Z,10.20
2023-09-28T21:09:38.018Z,7.70
2023-09-28T21:12:04.926Z,7.13
2023-09-28T21:14:31.572Z,15.98
2023-09-28T21:16:59.453Z,6.10
2023-09-28T21:19:26.012Z,7.70
2023-09-28T21:21:52.516Z,8.03
2023-09-28T21:24:18.957Z,7.03
2023-09-28T21:26:45.506Z,16.67
2023-09-28T21:29:12.114Z,8.47
2023-09-28T21:31:38.655Z,8.35
2023-09-28T21:34:06.515Z,12.60
2023-09-28T21:36:32.979Z,7.43
2023-09-28T21:38:59.861Z,8.20
2023-09-28T21:41:26.527Z,7.68
2023-09-28T21:43:53.036Z,7.65
2023-09-28T21:46:23.824Z,15.27
2023-09-28T21:48:50.864Z,10.82
2023-09-28T21:51:18.716Z,7.80
2023-09-28T21:53:45.388Z,7.70
2023-09-28T21:56:12.808Z,7.78
2023-09-28T21:58:39.335Z,9.07
2023-09-28T22:01:05.823Z,12.60
2023-09-28T22:03:32.378Z,8.10
2023-09-28T22:05:59.020Z,9.48
2023-09-28T22:08:27.109Z,10.48
2023-09-28T22:10:53.708Z,7.65
2023-09-28T22:13:20.383Z,6.90
2023-09-28T22:15:46.905Z,6.20
2023-09-28T22:18:13.703Z,9.80
2023-09-28T22:20:40.246Z,7.15
2023-09-28T22:23:06.724Z,7.88
2023-09-28T22:25:34.665Z,7.32
2023-09-28T22:28:01.426Z,8.98
2023-09-28T22:30:27.947Z,5.47
2023-09-28T22:32:54.544Z,7.13
2023-09-28T22:35:21.345Z,7.23
2023-09-28T22:37:47.869Z,6.05
2023-09-28T22:40:27.105Z,9.65
2023-09-28T22:42:56.035Z,15.30
2023-09-28T22:45:22.744Z,7.13
2023-09-28T22:47:49.656Z,11.10
2023-09-28T22:50:16.321Z,4.65
2023-09-28T22:52:42.897Z,6.28
2023-09-28T22:55:09.989Z,5.75
2023-09-28T22:57:36.489Z,8.07
2023-09-28T23:00:05.727Z,5.57
2023-09-28T23:02:32.373Z,6.57
2023-09-28T23:04:59.274Z,10.43
2023-09-28T23:07:25.792Z,5.47
2023-09-28T23:09:52.259Z,8.25
2023-09-28T23:12:19.666Z,5.53
2023-09-28T23:17:13.972Z,5.28
2023-09-28T23:19:40.451Z,8.85
2023-09-28T23:22:07.040Z,5.22
2023-09-28T23:24:33.612Z,5.55
2023-09-28T23:27:00.208Z,6.00
2023-09-28T23:29:26.898Z,9.38
2023-09-28T23:31:53.557Z,8.88
2023-09-28T23:34:21.641Z,6.68
2023-09-28T23:36:48.186Z,6.97
2023-09-28T23:39:14.713Z,10.73
2023-09-28T23:41:41.798Z,7.82
2023-09-28T23:44:08.348Z,7.40
2023-09-28T23:46:34.904Z,4.97
2023-09-28T23:49:01.381Z,5.18
2023-09-28T23:51:29.329Z,5.40
2023-09-28T23:53:55.838Z,6.05
2023-09-28T23:56:22.394Z,5.33
2023-09-28T23:58:48.904Z,6.70
